Bimble, Kentucky
Current Conditions -  °F | °C
As of 2:55 PM on Friday 24 Oct 2014 (Local Time) from K1A6 Reporting Station
Clear Clear  
Wind Chill: 65°   Ceiling: Unl
Heat Index: 65°   Visibility: 10mi
Dew Point: 42°   Wind: 0mph
Humidity: 43%   Direction: NA
Pressure: 30.07"   Gusts: NA
Location:  36.87°N, 83.83°W
Report Text: K1A6 241855Z AUTO 00000KT 10SM CLR 19/06 A3007 RMK AO2 T01850057
Loading
Personal Weather Stations






























Interactive Weather Map
Tropical Storm Tracking
New forecast layout! Learn more

10-Day Weather Forecast

Advertisements
Track Severe Weather on mobile